sensor_id;sensor_type;location;lat;lon;timestamp;pressure;altitude;pressure_sealevel;temperature;humidity
13581;BME280;6861;46.170;7.222;2023-04-09T00:01:07;96312.69;;;10.22;46.76
13581;BME280;6861;46.170;7.222;2023-04-09T00:03:36;96312.06;;;10.10;47.05
13581;BME280;6861;46.170;7.222;2023-04-09T00:06:04;96317.75;;;10.02;46.93
13581;BME280;6861;46.170;7.222;2023-04-09T00:08:34;96328.94;;;9.92;47.39
13581;BME280;6861;46.170;7.222;2023-04-09T00:11:02;96326.00;;;9.83;47.50
13581;BME280;6861;46.170;7.222;2023-04-09T00:13:31;96330.63;;;9.76;48.06
13581;BME280;6861;46.170;7.222;2023-04-09T00:16:06;96330.06;;;9.69;47.70
13581;BME280;6861;46.170;7.222;2023-04-09T00:18:34;96329.47;;;9.62;48.24
13581;BME280;6861;46.170;7.222;2023-04-09T00:21:03;96322.88;;;9.54;48.56
13581;BME280;6861;46.170;7.222;2023-04-09T00:23:34;96335.16;;;9.49;48.20
13581;BME280;6861;46.170;7.222;2023-04-09T00:26:02;96330.41;;;9.46;48.40
13581;BME280;6861;46.170;7.222;2023-04-09T00:28:30;96330.38;;;9.41;48.69
13581;BME280;6861;46.170;7.222;2023-04-09T00:30:59;96335.31;;;9.37;48.23
13581;BME280;6861;46.170;7.222;2023-04-09T00:33:27;96333.19;;;9.34;49.24
13581;BME280;6861;46.170;7.222;2023-04-09T00:35:55;96327.16;;;9.34;48.95
13581;BME280;6861;46.170;7.222;2023-04-09T00:38:23;96328.75;;;9.35;48.36
13581;BME280;6861;46.170;7.222;2023-04-09T00:40:52;96331.13;;;9.36;48.91
13581;BME280;6861;46.170;7.222;2023-04-09T00:43:21;96333.47;;;9.38;48.38
13581;BME280;6861;46.170;7.222;2023-04-09T00:45:49;96343.44;;;9.41;48.80
13581;BME280;6861;46.170;7.222;2023-04-09T00:48:17;96345.78;;;9.42;48.83
13581;BME280;6861;46.170;7.222;2023-04-09T00:50:45;96346.59;;;9.43;48.48
13581;BME280;6861;46.170;7.222;2023-04-09T00:53:15;96338.22;;;9.41;48.72
13581;BME280;6861;46.170;7.222;2023-04-09T00:55:43;96338.09;;;9.31;48.99
13581;BME280;6861;46.170;7.222;2023-04-09T00:58:13;96345.59;;;9.22;49.29
13581;BME280;6861;46.170;7.222;2023-04-09T01:00:42;96343.72;;;9.17;48.70
13581;BME280;6861;46.170;7.222;2023-04-09T01:03:10;96349.94;;;9.11;48.80
13581;BME280;6861;46.170;7.222;2023-04-09T01:05:53;96346.19;;;9.02;49.30
13581;BME280;6861;46.170;7.222;2023-04-09T01:08:32;96349.22;;;8.94;49.71
13581;BME280;6861;46.170;7.222;2023-04-09T01:11:08;96346.31;;;8.91;49.53
13581;BME280;6861;46.170;7.222;2023-04-09T01:13:48;96349.22;;;8.94;49.99
13581;BME280;6861;46.170;7.222;2023-04-09T01:16:18;96343.81;;;9.01;49.25
13581;BME280;6861;46.170;7.222;2023-04-09T01:18:52;96349.31;;;9.04;49.96
13581;BME280;6861;46.170;7.222;2023-04-09T01:21:25;96349.31;;;9.04;49.12
13581;BME280;6861;46.170;7.222;2023-04-09T01:24:01;96347.22;;;9.01;49.69
13581;BME280;6861;46.170;7.222;2023-04-09T01:26:44;96341.38;;;8.94;49.80
13581;BME280;6861;46.170;7.222;2023-04-09T01:29:22;96341.31;;;8.89;49.29
13581;BME280;6861;46.170;7.222;2023-04-09T01:31:53;96341.31;;;8.89;49.95
13581;BME280;6861;46.170;7.222;2023-04-09T01:34:22;96339.25;;;8.91;49.49
13581;BME280;6861;46.170;7.222;2023-04-09T01:36:54;96340.00;;;8.86;49.36
13581;BME280;6861;46.170;7.222;2023-04-09T01:39:22;96339.16;;;8.81;49.33
13581;BME280;6861;46.170;7.222;2023-04-09T01:41:51;96344.06;;;8.77;49.84
13581;BME280;6861;46.170;7.222;2023-04-09T01:44:22;96345.34;;;8.75;49.83
13581;BME280;6861;46.170;7.222;2023-04-09T01:46:51;96345.81;;;8.72;49.73
13581;BME280;6861;46.170;7.222;2023-04-09T01:49:21;96335.38;;;8.72;50.50
13581;BME280;6861;46.170;7.222;2023-04-09T01:51:49;96342.19;;;8.73;50.28
13581;BME280;6861;46.170;7.222;2023-04-09T01:54:18;96342.97;;;8.73;49.89
13581;BME280;6861;46.170;7.222;2023-04-09T01:56:47;96343.75;;;8.74;49.46
13581;BME280;6861;46.170;7.222;2023-04-09T01:59:15;96351.34;;;8.75;49.26
13581;BME280;6861;46.170;7.222;2023-04-09T02:01:46;96349.28;;;8.77;49.99
13581;BME280;6861;46.170;7.222;2023-04-09T02:04:20;96352.19;;;8.81;49.51
13581;BME280;6861;46.170;7.222;2023-04-09T02:06:54;96355.34;;;8.83;49.79
13581;BME280;6861;46.170;7.222;2023-04-09T02:09:26;96348.31;;;8.83;49.63
13581;BME280;6861;46.170;7.222;2023-04-09T02:11:57;96351.75;;;8.89;49.60
13581;BME280;6861;46.170;7.222;2023-04-09T02:14:27;96344.00;;;8.94;48.86
13581;BME280;6861;46.170;7.222;2023-04-09T02:16:58;96345.09;;;8.98;49.42
13581;BME280;6861;46.170;7.222;2023-04-09T02:19:37;96350.59;;;9.02;48.89
13581;BME280;6861;46.170;7.222;2023-04-09T02:22:05;96352.97;;;9.03;48.60
13581;BME280;6861;46.170;7.222;2023-04-09T02:24:34;96357.69;;;9.06;49.21
13581;BME280;6861;46.170;7.222;2023-04-09T02:27:02;96365.00;;;9.04;48.67
13581;BME280;6861;46.170;7.222;2023-04-09T02:29:32;96367.25;;;8.96;49.61
13581;BME280;6861;46.170;7.222;2023-04-09T02:32:02;96360.63;;;8.88;49.38
13581;BME280;6861;46.170;7.222;2023-04-09T02:34:30;96362.63;;;8.81;49.86
13581;BME280;6861;46.170;7.222;2023-04-09T02:36:58;96365.13;;;8.71;50.11
13581;BME280;6861;46.170;7.222;2023-04-09T02:39:26;96366.13;;;8.65;50.41
13581;BME280;6861;46.170;7.222;2023-04-09T02:41:54;96364.53;;;8.64;50.26
13581;BME280;6861;46.170;7.222;2023-04-09T02:44:23;96366.59;;;8.62;49.61
13581;BME280;6861;46.170;7.222;2023-04-09T02:46:51;96370.22;;;8.61;49.81
13581;BME280;6861;46.170;7.222;2023-04-09T02:49:21;96368.66;;;8.60;49.97
13581;BME280;6861;46.170;7.222;2023-04-09T02:51:49;96366.53;;;8.57;50.40
13581;BME280;6861;46.170;7.222;2023-04-09T02:54:17;96364.41;;;8.53;50.15
13581;BME280;6861;46.170;7.222;2023-04-09T02:56:45;96363.63;;;8.53;49.79
13581;BME280;6861;46.170;7.222;2023-04-09T02:59:13;96363.06;;;8.51;50.16
13581;BME280;6861;46.170;7.222;2023-04-09T03:01:41;96372.72;;;8.50;50.30
13581;BME280;6861;46.170;7.222;2023-04-09T03:04:10;96359.66;;;8.50;49.97
13581;BME280;6861;46.170;7.222;2023-04-09T03:06:39;96358.56;;;8.46;50.16
13581;BME280;6861;46.170;7.222;2023-04-09T03:09:07;96362.22;;;8.45;50.85
13581;BME280;6861;46.170;7.222;2023-04-09T03:11:36;96360.16;;;8.47;50.73
13581;BME280;6861;46.170;7.222;2023-04-09T03:14:04;96351.28;;;8.48;50.60
13581;BME280;6861;46.170;7.222;2023-04-09T03:16:32;96356.50;;;8.48;50.59
13581;BME280;6861;46.170;7.222;2023-04-09T03:19:00;96359.06;;;8.43;50.27
13581;BME280;6861;46.170;7.222;2023-04-09T03:21:28;96355.34;;;8.39;50.94
13581;BME280;6861;46.170;7.222;2023-04-09T03:23:59;96352.19;;;8.37;50.09
13581;BME280;6861;46.170;7.222;2023-04-09T03:26:27;96354.81;;;8.37;50.36
13581;BME280;6861;46.170;7.222;2023-04-09T03:29:01;96359.47;;;8.35;49.84
13581;BME280;6861;46.170;7.222;2023-04-09T03:31:30;96355.28;;;8.34;49.93
13581;BME280;6861;46.170;7.222;2023-04-09T03:33:58;96356.31;;;8.33;50.96
13581;BME280;6861;46.170;7.222;2023-04-09T03:36:26;96357.78;;;8.29;50.69
13581;BME280;6861;46.170;7.222;2023-04-09T03:38:54;96356.22;;;8.28;50.49
13581;BME280;6861;46.170;7.222;2023-04-09T03:41:24;96357.25;;;8.27;51.17
13581;BME280;6861;46.170;7.222;2023-04-09T03:43:52;96354.88;;;8.26;51.19
13581;BME280;6861;46.170;7.222;2023-04-09T03:46:21;96352.25;;;8.26;50.77
13581;BME280;6861;46.170;7.222;2023-04-09T03:48:49;96357.72;;;8.24;50.98
13581;BME280;6861;46.170;7.222;2023-04-09T03:51:17;96360.81;;;8.21;50.04
13581;BME280;6861;46.170;7.222;2023-04-09T03:53:46;96356.63;;;8.20;51.01
13581;BME280;6861;46.170;7.222;2023-04-09T03:56:14;96366.50;;;8.18;51.08
13581;BME280;6861;46.170;7.222;2023-04-09T03:58:43;96373.22;;;8.14;51.14
13581;BME280;6861;46.170;7.222;2023-04-09T04:01:14;96366.09;;;8.09;51.48
13581;BME280;6861;46.170;7.222;2023-04-09T04:03:42;96366.19;;;7.98;50.42
13581;BME280;6861;46.170;7.222;2023-04-09T04:06:10;96372.34;;;7.92;51.99
13581;BME280;6861;46.170;7.222;2023-04-09T04:08:38;96376.88;;;7.79;51.65
13581;BME280;6861;46.170;7.222;2023-04-09T04:11:06;96380.66;;;7.72;52.01
13581;BME280;6861;46.170;7.222;2023-04-09T04:13:34;96375.59;;;7.65;51.93
13581;BME280;6861;46.170;7.222;2023-04-09T04:16:07;96378.69;;;7.62;52.52
13581;BME280;6861;46.170;7.222;2023-04-09T04:18:36;96378.13;;;7.60;51.24
13581;BME280;6861;46.170;7.222;2023-04-09T04:21:04;96376.78;;;7.57;51.90
13581;BME280;6861;46.170;7.222;2023-04-09T04:23:33;96376.47;;;7.54;51.95
13581;BME280;6861;46.170;7.222;2023-04-09T04:26:01;96387.34;;;7.51;51.89
13581;BME280;6861;46.170;7.222;2023-04-09T04:28:29;96382.13;;;7.51;52.39
13581;BME280;6861;46.170;7.222;2023-04-09T04:30:57;96374.88;;;7.53;52.21
13581;BME280;6861;46.170;7.222;2023-04-09T04:33:27;96370.00;;;7.56;51.90
13581;BME280;6861;46.170;7.222;2023-04-09T04:36:03;96373.63;;;7.55;51.88
13581;BME280;6861;46.170;7.222;2023-04-09T04:38:32;96372.81;;;7.55;52.02
13581;BME280;6861;46.170;7.222;2023-04-09T04:41:00;96369.34;;;7.49;51.88
13581;BME280;6861;46.170;7.222;2023-04-09T04:43:29;96369.03;;;7.46;51.67
13581;BME280;6861;46.170;7.222;2023-04-09T04:45:57;96379.91;;;7.43;51.59
13581;BME280;6861;46.170;7.222;2023-04-09T04:48:27;96375.16;;;7.40;52.09
13581;BME280;6861;46.170;7.222;2023-04-09T04:50:57;96374.06;;;7.36;51.63
13581;BME280;6861;46.170;7.222;2023-04-09T04:53:25;96384.94;;;7.33;52.35
13581;BME280;6861;46.170;7.222;2023-04-09T04:55:54;96381.78;;;7.31;52.04
13581;BME280;6861;46.170;7.222;2023-04-09T04:58:22;96388.00;;;7.30;52.40
13581;BME280;6861;46.170;7.222;2023-04-09T05:00:51;96390.50;;;7.24;51.98
13581;BME280;6861;46.170;7.222;2023-04-09T05:03:19;96392.00;;;7.20;52.04
13581;BME280;6861;46.170;7.222;2023-04-09T05:05:50;96400.50;;;7.16;53.06
13581;BME280;6861;46.170;7.222;2023-04-09T05:08:18;96402.22;;;7.10;53.22
13581;BME280;6861;46.170;7.222;2023-04-09T05:10:46;96398.72;;;7.05;53.24
13581;BME280;6861;46.170;7.222;2023-04-09T05:13:14;96398.84;;;6.98;53.32
13581;BME280;6861;46.170;7.222;2023-04-09T05:15:43;96399.09;;;6.97;53.05
13581;BME280;6861;46.170;7.222;2023-04-09T05:18:11;96404.75;;;6.94;54.24
13581;BME280;6861;46.170;7.222;2023-04-09T05:20:39;96398.69;;;6.88;53.43
13581;BME280;6861;46.170;7.222;2023-04-09T05:23:09;96400.97;;;6.84;53.57
13581;BME280;6861;46.170;7.222;2023-04-09T05:25:38;96400.63;;;6.81;54.11
13581;BME280;6861;46.170;7.222;2023-04-09T05:28:06;96406.84;;;6.80;53.34
13581;BME280;6861;46.170;7.222;2023-04-09T05:30:36;96406.63;;;6.81;53.36
13581;BME280;6861;46.170;7.222;2023-04-09T05:33:05;96400.72;;;6.86;53.43
13581;BME280;6861;46.170;7.222;2023-04-09T05:35:37;96393.03;;;6.91;54.20
13581;BME280;6861;46.170;7.222;2023-04-09T05:38:05;96393.31;;;6.95;53.79
13581;BME280;6861;46.170;7.222;2023-04-09T05:40:35;96397.75;;;6.94;54.06
13581;BME280;6861;46.170;7.222;2023-04-09T05:43:03;96403.56;;;6.84;54.27
13581;BME280;6861;46.170;7.222;2023-04-09T05:45:31;96398.84;;;6.70;54.16
13581;BME280;6861;46.170;7.222;2023-04-09T05:47:59;96400.22;;;6.61;53.90
13581;BME280;6861;46.170;7.222;2023-04-09T05:50:28;96405.28;;;6.55;54.10
13581;BME280;6861;46.170;7.222;2023-04-09T05:52:59;96399.53;;;6.53;55.21
13581;BME280;6861;46.170;7.222;2023-04-09T05:55:28;96408.47;;;6.57;54.23
13581;BME280;6861;46.170;7.222;2023-04-09T05:57:59;96407.22;;;6.60;54.98
13581;BME280;6861;46.170;7.222;2023-04-09T06:00:27;96411.72;;;6.65;55.16
13581;BME280;6861;46.170;7.222;2023-04-09T06:02:55;96411.72;;;6.76;53.81
13581;BME280;6861;46.170;7.222;2023-04-09T06:05:24;96415.78;;;6.84;53.64
13581;BME280;6861;46.170;7.222;2023-04-09T06:07:52;96411.78;;;6.93;53.99
13581;BME280;6861;46.170;7.222;2023-04-09T06:10:20;96416.94;;;7.05;53.57
13581;BME280;6861;46.170;7.222;2023-04-09T06:12:48;96412.16;;;7.13;53.92
13581;BME280;6861;46.170;7.222;2023-04-09T06:15:18;96414.88;;;7.18;54.20
13581;BME280;6861;46.170;7.222;2023-04-09T06:17:46;96415.19;;;7.22;54.24
13581;BME280;6861;46.170;7.222;2023-04-09T06:20:14;96408.72;;;7.24;52.92
13581;BME280;6861;46.170;7.222;2023-04-09T06:22:43;96414.03;;;7.30;53.13
13581;BME280;6861;46.170;7.222;2023-04-09T06:25:11;96416.63;;;7.30;53.06
13581;BME280;6861;46.170;7.222;2023-04-09T06:27:39;96416.16;;;7.33;54.03
13581;BME280;6861;46.170;7.222;2023-04-09T06:30:08;96415.94;;;7.34;52.67
13581;BME280;6861;46.170;7.222;2023-04-09T06:32:38;96417.28;;;7.37;52.83
13581;BME280;6861;46.170;7.222;2023-04-09T06:35:20;96413.56;;;7.33;53.50
13581;BME280;6861;46.170;7.222;2023-04-09T06:37:48;96420.25;;;7.29;52.93
13581;BME280;6861;46.170;7.222;2023-04-09T06:40:16;96421.50;;;7.26;52.92
13581;BME280;6861;46.170;7.222;2023-04-09T06:42:48;96426.72;;;7.26;54.22
13581;BME280;6861;46.170;7.222;2023-04-09T06:45:16;96430.22;;;7.32;54.06
13581;BME280;6861;46.170;7.222;2023-04-09T06:47:46;96432.91;;;7.37;52.80
13581;BME280;6861;46.170;7.222;2023-04-09T06:50:14;96428.34;;;7.44;52.70
13581;BME280;6861;46.170;7.222;2023-04-09T06:52:43;96429.47;;;7.48;53.34
13581;BME280;6861;46.170;7.222;2023-04-09T06:55:11;96435.78;;;7.52;52.29
13581;BME280;6861;46.170;7.222;2023-04-09T06:57:39;96435.41;;;7.60;52.60
13581;BME280;6861;46.170;7.222;2023-04-09T07:00:08;96432.19;;;7.70;52.27
13581;BME280;6861;46.170;7.222;2023-04-09T07:02:37;96435.22;;;7.78;51.84
13581;BME280;6861;46.170;7.222;2023-04-09T07:05:08;96442.16;;;7.89;51.64
13581;BME280;6861;46.170;7.222;2023-04-09T07:07:36;96440.72;;;7.99;52.19
13581;BME280;6861;46.170;7.222;2023-04-09T07:10:05;96434.91;;;8.08;52.61
13581;BME280;6861;46.170;7.222;2023-04-09T07:12:34;96436.88;;;8.18;50.93
13581;BME280;6861;46.170;7.222;2023-04-09T07:15:03;96436.16;;;8.22;51.74
13581;BME280;6861;46.170;7.222;2023-04-09T07:17:32;96438.53;;;8.24;51.45
13581;BME280;6861;46.170;7.222;2023-04-09T07:20:01;96435.69;;;8.26;51.88
13581;BME280;6861;46.170;7.222;2023-04-09T07:22:31;96433.34;;;9.01;51.09
13581;BME280;6861;46.170;7.222;2023-04-09T07:24:59;96421.47;;;11.23;48.76
13581;BME280;6861;46.170;7.222;2023-04-09T07:27:27;96418.59;;;13.56;45.04
13581;BME280;6861;46.170;7.222;2023-04-09T07:29:57;96416.88;;;15.77;41.26
13581;BME280;6861;46.170;7.222;2023-04-09T07:32:25;96422.69;;;17.53;38.98
13581;BME280;6861;46.170;7.222;2023-04-09T07:34:55;96416.03;;;19.07;36.36
13581;BME280;6861;46.170;7.222;2023-04-09T07:37:24;96424.44;;;20.44;34.50
13581;BME280;6861;46.170;7.222;2023-04-09T07:39:54;96417.78;;;21.43;32.71
13581;BME280;6861;46.170;7.222;2023-04-09T07:42:22;96430.16;;;22.10;30.99
13581;BME280;6861;46.170;7.222;2023-04-09T07:44:51;96422.13;;;22.88;30.60
13581;BME280;6861;46.170;7.222;2023-04-09T07:47:21;96426.91;;;23.68;29.29
13581;BME280;6861;46.170;7.222;2023-04-09T07:49:49;96420.81;;;24.24;28.12
13581;BME280;6861;46.170;7.222;2023-04-09T07:52:17;96409.69;;;24.81;26.97
13581;BME280;6861;46.170;7.222;2023-04-09T07:54:46;96413.63;;;25.34;26.52
13581;BME280;6861;46.170;7.222;2023-04-09T07:57:16;96416.59;;;25.99;25.45
13581;BME280;6861;46.170;7.222;2023-04-09T07:59:44;96420.94;;;26.46;24.61
13581;BME280;6861;46.170;7.222;2023-04-09T08:02:13;96419.16;;;26.76;23.73
13581;BME280;6861;46.170;7.222;2023-04-09T08:04:41;96413.25;;;27.13;22.63
13581;BME280;6861;46.170;7.222;2023-04-09T08:07:10;96410.34;;;27.52;22.37
13581;BME280;6861;46.170;7.222;2023-04-09T08:09:38;96409.22;;;28.13;22.07
13581;BME280;6861;46.170;7.222;2023-04-09T08:12:06;96411.13;;;28.86;20.79
13581;BME280;6861;46.170;7.222;2023-04-09T08:14:36;96406.03;;;29.22;20.38
13581;BME280;6861;46.170;7.222;2023-04-09T08:17:04;96408.28;;;29.78;19.83
13581;BME280;6861;46.170;7.222;2023-04-09T08:19:32;96409.28;;;30.36;19.60
13581;BME280;6861;46.170;7.222;2023-04-09T08:22:01;96404.75;;;31.00;19.18
13581;BME280;6861;46.170;7.222;2023-04-09T08:24:29;96401.59;;;31.62;18.41
13581;BME280;6861;46.170;7.222;2023-04-09T08:26:58;96396.13;;;31.83;17.57
13581;BME280;6861;46.170;7.222;2023-04-09T08:29:27;96389.66;;;32.43;17.81
13581;BME280;6861;46.170;7.222;2023-04-09T08:31:59;96382.63;;;33.05;17.13
13581;BME280;6861;46.170;7.222;2023-04-09T08:34:27;96384.66;;;33.76;16.31
13581;BME280;6861;46.170;7.222;2023-04-09T08:36:55;96375.53;;;34.50;16.11
13581;BME280;6861;46.170;7.222;2023-04-09T08:39:23;96379.03;;;35.01;15.68
13581;BME280;6861;46.170;7.222;2023-04-09T08:41:52;96373.91;;;35.70;15.06
13581;BME280;6861;46.170;7.222;2023-04-09T08:44:20;96381.78;;;36.04;14.66
13581;BME280;6861;46.170;7.222;2023-04-09T08:46:49;96386.66;;;36.32;14.28
13581;BME280;6861;46.170;7.222;2023-04-09T08:49:18;96377.38;;;36.46;14.14
13581;BME280;6861;46.170;7.222;2023-04-09T08:51:47;96372.66;;;36.83;13.50
13581;BME280;6861;46.170;7.222;2023-04-09T08:54:16;96363.53;;;37.22;13.39
13581;BME280;6861;46.170;7.222;2023-04-09T08:56:46;96364.66;;;37.66;12.96
13581;BME280;6861;46.170;7.222;2023-04-09T08:59:14;96360.38;;;38.07;12.50
13581;BME280;6861;46.170;7.222;2023-04-09T09:01:44;96351.09;;;38.55;12.23
13581;BME280;6861;46.170;7.222;2023-04-09T09:04:15;96351.75;;;39.19;12.13
13581;BME280;6861;46.170;7.222;2023-04-09T09:06:44;96346.13;;;40.01;11.82
13581;BME280;6861;46.170;7.222;2023-04-09T09:09:14;96335.41;;;40.24;11.32
13581;BME280;6861;46.170;7.222;2023-04-09T09:11:44;96341.34;;;40.54;11.27
13581;BME280;6861;46.170;7.222;2023-04-09T09:14:14;96331.63;;;40.80;11.04
13581;BME280;6861;46.170;7.222;2023-04-09T09:17:01;96330.16;;;41.43;11.00
13581;BME280;6861;46.170;7.222;2023-04-09T09:19:31;96325.03;;;42.39;10.51
13581;BME280;6861;46.170;7.222;2023-04-09T09:22:03;96324.91;;;42.90;10.00
13581;BME280;6861;46.170;7.222;2023-04-09T09:24:32;96319.78;;;43.36;9.87
13581;BME280;6861;46.170;7.222;2023-04-09T09:27:01;96314.03;;;43.93;9.33
13581;BME280;6861;46.170;7.222;2023-04-09T09:29:29;96310.63;;;43.98;8.86
13581;BME280;6861;46.170;7.222;2023-04-09T09:31:57;96307.22;;;44.03;8.44
13581;BME280;6861;46.170;7.222;2023-04-09T09:34:25;96298.63;;;44.16;8.40
13581;BME280;6861;46.170;7.222;2023-04-09T09:36:53;96295.22;;;44.06;8.17
13581;BME280;6861;46.170;7.222;2023-04-09T09:39:41;96296.97;;;44.24;7.94
13581;BME280;6861;46.170;7.222;2023-04-09T09:42:10;96294.75;;;44.63;8.04
13581;BME280;6861;46.170;7.222;2023-04-09T09:44:38;96279.13;;;45.47;7.80
13581;BME280;6861;46.170;7.222;2023-04-09T09:47:07;96270.59;;;46.45;7.38
13581;BME280;6861;46.170;7.222;2023-04-09T09:49:36;96275.94;;;47.30;7.45
13581;BME280;6861;46.170;7.222;2023-04-09T09:52:08;96275.97;;;48.03;7.08
13581;BME280;6861;46.170;7.222;2023-04-09T09:54:40;96267.31;;;48.51;6.72
13581;BME280;6861;46.170;7.222;2023-04-09T09:57:09;96256.53;;;48.31;6.55
13581;BME280;6861;46.170;7.222;2023-04-09T09:59:42;96262.38;;;48.00;6.54
13581;BME280;6861;46.170;7.222;2023-04-09T10:02:18;96247.19;;;48.12;6.22
13581;BME280;6861;46.170;7.222;2023-04-09T10:04:48;96253.97;;;48.44;6.82
13581;BME280;6861;46.170;7.222;2023-04-09T10:07:17;96251.09;;;48.67;6.57
13581;BME280;6861;46.170;7.222;2023-04-09T10:09:50;96244.72;;;48.77;5.90
13581;BME280;6861;46.170;7.222;2023-04-09T10:12:21;96249.59;;;48.66;6.16
13581;BME280;6861;46.170;7.222;2023-04-09T10:14:50;96244.19;;;48.21;6.28
13581;BME280;6861;46.170;7.222;2023-04-09T10:17:19;96234.34;;;47.97;6.36
13581;BME280;6861;46.170;7.222;2023-04-09T10:20:04;96235.13;;;47.70;6.29
13581;BME280;6861;46.170;7.222;2023-04-09T10:22:35;96228.78;;;48.14;6.01
13581;BME280;6861;46.170;7.222;2023-04-09T10:25:06;96216.47;;;47.87;5.94
13581;BME280;6861;46.170;7.222;2023-04-09T10:27:35;96214.41;;;48.05;6.24
13581;BME280;6861;46.170;7.222;2023-04-09T10:30:04;96206.31;;;48.81;6.22
13581;BME280;6861;46.170;7.222;2023-04-09T10:32:36;96213.63;;;49.61;6.16
13581;BME280;6861;46.170;7.222;2023-04-09T10:35:08;96199.97;;;50.36;5.77
13581;BME280;6861;46.170;7.222;2023-04-09T10:37:36;96192.69;;;51.08;5.71
13581;BME280;6861;46.170;7.222;2023-04-09T10:40:06;96194.44;;;51.25;5.19
13581;BME280;6861;46.170;7.222;2023-04-09T10:42:41;96191.03;;;50.81;5.45
13581;BME280;6861;46.170;7.222;2023-04-09T10:45:12;96191.03;;;51.00;5.60
13581;BME280;6861;46.170;7.222;2023-04-09T10:47:42;96181.09;;;50.67;5.66
13581;BME280;6861;46.170;7.222;2023-04-09T10:50:17;96180.16;;;50.40;5.90
13581;BME280;6861;46.170;7.222;2023-04-09T10:52:46;96175.72;;;49.82;6.10
13581;BME280;6861;46.170;7.222;2023-04-09T10:55:32;96178.03;;;49.18;6.14
13581;BME280;6861;46.170;7.222;2023-04-09T10:58:02;96168.34;;;48.95;6.39
13581;BME280;6861;46.170;7.222;2023-04-09T11:00:30;96163.50;;;48.54;6.25
13581;BME280;6861;46.170;7.222;2023-04-09T11:03:22;96164.81;;;47.51;6.59
13581;BME280;6861;46.170;7.222;2023-04-09T11:05:57;96151.28;;;44.95;7.63
13581;BME280;6861;46.170;7.222;2023-04-09T11:08:30;96156.22;;;41.10;9.46
13581;BME280;6861;46.170;7.222;2023-04-09T11:11:01;96157.72;;;37.45;11.20
13581;BME280;6861;46.170;7.222;2023-04-09T11:13:30;96143.34;;;34.28;12.72
13581;BME280;6861;46.170;7.222;2023-04-09T11:16:00;96143.78;;;31.58;14.81
13581;BME280;6861;46.170;7.222;2023-04-09T11:18:33;96146.19;;;29.65;15.80
13581;BME280;6861;46.170;7.222;2023-04-09T11:21:03;96147.09;;;28.21;17.04
13581;BME280;6861;46.170;7.222;2023-04-09T11:23:32;96139.84;;;27.03;18.40
13581;BME280;6861;46.170;7.222;2023-04-09T11:26:01;96150.09;;;26.11;19.21
13581;BME280;6861;46.170;7.222;2023-04-09T11:28:30;96148.81;;;25.36;20.25
13581;BME280;6861;46.170;7.222;2023-04-09T11:30:59;96146.00;;;24.71;21.42
13581;BME280;6861;46.170;7.222;2023-04-09T11:33:31;96148.22;;;23.99;22.50
13581;BME280;6861;46.170;7.222;2023-04-09T11:36:03;96145.22;;;23.41;23.31
13581;BME280;6861;46.170;7.222;2023-04-09T11:38:31;96143.25;;;22.95;23.76
13581;BME280;6861;46.170;7.222;2023-04-09T11:41:01;96154.31;;;22.56;24.88
13581;BME280;6861;46.170;7.222;2023-04-09T11:43:29;96144.50;;;22.33;24.40
13581;BME280;6861;46.170;7.222;2023-04-09T11:45:58;96145.84;;;22.14;24.97
13581;BME280;6861;46.170;7.222;2023-04-09T11:48:26;96136.59;;;22.00;25.58
13581;BME280;6861;46.170;7.222;2023-04-09T11:50:54;96137.47;;;21.79;25.73
13581;BME280;6861;46.170;7.222;2023-04-09T11:53:23;96139.34;;;21.67;26.36
13581;BME280;6861;46.170;7.222;2023-04-09T11:55:57;96138.47;;;21.50;27.23
13581;BME280;6861;46.170;7.222;2023-04-09T11:58:26;96132.22;;;21.34;27.67
13581;BME280;6861;46.170;7.222;2023-04-09T12:00:55;96134.84;;;21.22;27.67
13581;BME280;6861;46.170;7.222;2023-04-09T12:03:28;96135.22;;;21.12;27.56
13581;BME280;6861;46.170;7.222;2023-04-09T12:05:59;96126.84;;;21.01;28.05
13581;BME280;6861;46.170;7.222;2023-04-09T12:08:28;96127.59;;;20.89;28.40
13581;BME280;6861;46.170;7.222;2023-04-09T12:11:06;96126.00;;;20.76;29.04
13581;BME280;6861;46.170;7.222;2023-04-09T12:13:36;96131.31;;;20.76;28.93
13581;BME280;6861;46.170;7.222;2023-04-09T12:16:09;96130.22;;;20.77;29.39
13581;BME280;6861;46.170;7.222;2023-04-09T12:18:37;96124.13;;;20.77;29.56
13581;BME280;6861;46.170;7.222;2023-04-09T12:21:06;96115.56;;;20.71;29.49
13581;BME280;6861;46.170;7.222;2023-04-09T12:23:34;96113.22;;;20.70;29.68
13581;BME280;6861;46.170;7.222;2023-04-09T12:26:02;96117.66;;;20.66;29.76
13581;BME280;6861;46.170;7.222;2023-04-09T12:28:30;96116.59;;;20.58;29.94
13581;BME280;6861;46.170;7.222;2023-04-09T12:31:00;96112.59;;;20.52;29.86
13581;BME280;6861;46.170;7.222;2023-04-09T12:33:30;96112.44;;;20.48;29.87
13581;BME280;6861;46.170;7.222;2023-04-09T12:35:59;96112.31;;;20.45;29.95
13581;BME280;6861;46.170;7.222;2023-04-09T12:38:28;96113.75;;;20.42;29.85
13581;BME280;6861;46.170;7.222;2023-04-09T12:40:56;96105.81;;;20.34;29.80
13581;BME280;6861;46.170;7.222;2023-04-09T12:43:24;96093.34;;;20.25;29.46
13581;BME280;6861;46.170;7.222;2023-04-09T12:45:52;96099.19;;;20.19;29.48
13581;BME280;6861;46.170;7.222;2023-04-09T12:48:22;96103.72;;;20.18;29.84
13581;BME280;6861;46.170;7.222;2023-04-09T12:50:50;96112.28;;;20.24;29.75
13581;BME280;6861;46.170;7.222;2023-04-09T12:53:18;96103.53;;;20.23;29.75
13581;BME280;6861;46.170;7.222;2023-04-09T12:55:46;96104.16;;;20.20;29.91
13581;BME280;6861;46.170;7.222;2023-04-09T12:58:14;96109.84;;;20.10;29.68
13581;BME280;6861;46.170;7.222;2023-04-09T13:00:42;96105.44;;;20.14;29.83
13581;BME280;6861;46.170;7.222;2023-04-09T13:03:11;96109.81;;;20.19;29.83
13581;BME280;6861;46.170;7.222;2023-04-09T13:05:44;96101.06;;;20.18;29.44
13581;BME280;6861;46.170;7.222;2023-04-09T13:08:12;96090.56;;;20.22;29.30
13581;BME280;6861;46.170;7.222;2023-04-09T13:10:41;96092.25;;;20.26;28.87
13581;BME280;6861;46.170;7.222;2023-04-09T13:13:09;96090.69;;;20.25;28.69
13581;BME280;6861;46.170;7.222;2023-04-09T13:15:39;96075.84;;;20.24;28.50
13581;BME280;6861;46.170;7.222;2023-04-09T13:18:08;96076.03;;;20.19;28.61
13581;BME280;6861;46.170;7.222;2023-04-09T13:20:37;96079.94;;;20.22;28.75
13581;BME280;6861;46.170;7.222;2023-04-09T13:23:06;96062.09;;;20.22;28.67
13581;BME280;6861;46.170;7.222;2023-04-09T13:25:35;96068.06;;;20.19;28.84
13581;BME280;6861;46.170;7.222;2023-04-09T13:28:03;96071.31;;;20.25;28.99
13581;BME280;6861;46.170;7.222;2023-04-09T13:30:31;96057.06;;;20.29;28.45